sensor_id;sensor_type;location;lat;lon;timestamp;P1;durP1;ratioP1;P2;durP2;ratioP2
17955;SDS011;27666;51.498;11.966;2023-04-21T00:00:37;26.80;;;15.80;;
17955;SDS011;27666;51.498;11.966;2023-04-21T00:03:24;26.63;;;16.27;;
17955;SDS011;27666;51.498;11.966;2023-04-21T00:06:12;24.97;;;15.87;;
17955;SDS011;27666;51.498;11.966;2023-04-21T00:09:06;30.50;;;17.47;;
17955;SDS011;27666;51.498;11.966;2023-04-21T00:11:52;27.80;;;14.93;;
17955;SDS011;27666;51.498;11.966;2023-04-21T00:14:39;24.47;;;16.00;;
17955;SDS011;27666;51.498;11.966;2023-04-21T00:17:27;23.60;;;15.67;;
17955;SDS011;27666;51.498;11.966;2023-04-21T00:20:13;25.77;;;16.00;;
17955;SDS011;27666;51.498;11.966;2023-04-21T00:23:00;23.73;;;15.93;;
17955;SDS011;27666;51.498;11.966;2023-04-21T00:25:47;24.00;;;16.43;;
17955;SDS011;27666;51.498;11.966;2023-04-21T00:28:33;26.13;;;15.67;;
17955;SDS011;27666;51.498;11.966;2023-04-21T00:31:20;26.90;;;15.90;;
17955;SDS011;27666;51.498;11.966;2023-04-21T00:34:08;29.33;;;15.20;;
17955;SDS011;27666;51.498;11.966;2023-04-21T00:36:55;31.20;;;16.47;;
17955;SDS011;27666;51.498;11.966;2023-04-21T00:39:41;28.40;;;16.07;;
17955;SDS011;27666;51.498;11.966;2023-04-21T00:42:27;28.57;;;16.10;;
17955;SDS011;27666;51.498;11.966;2023-04-21T00:45:14;28.73;;;16.97;;
17955;SDS011;27666;51.498;11.966;2023-04-21T00:48:00;26.57;;;17.07;;
17955;SDS011;27666;51.498;11.966;2023-04-21T00:50:48;28.37;;;15.60;;
17955;SDS011;27666;51.498;11.966;2023-04-21T00:53:35;25.70;;;16.00;;
17955;SDS011;27666;51.498;11.966;2023-04-21T00:56:21;27.47;;;15.77;;
17955;SDS011;27666;51.498;11.966;2023-04-21T00:59:08;22.80;;;14.50;;
17955;SDS011;27666;51.498;11.966;2023-04-21T01:01:55;22.63;;;15.03;;
17955;SDS011;27666;51.498;11.966;2023-04-21T01:04:42;23.97;;;14.93;;
17955;SDS011;27666;51.498;11.966;2023-04-21T01:07:30;24.47;;;15.00;;
17955;SDS011;27666;51.498;11.966;2023-04-21T01:10:18;24.57;;;14.63;;
17955;SDS011;27666;51.498;11.966;2023-04-21T01:13:04;29.17;;;14.53;;
17955;SDS011;27666;51.498;11.966;2023-04-21T01:15:51;27.50;;;13.77;;
17955;SDS011;27666;51.498;11.966;2023-04-21T01:18:37;20.20;;;13.50;;
17955;SDS011;27666;51.498;11.966;2023-04-21T01:21:23;18.93;;;12.77;;
17955;SDS011;27666;51.498;11.966;2023-04-21T01:24:13;17.63;;;12.90;;
17955;SDS011;27666;51.498;11.966;2023-04-21T01:27:00;27.17;;;13.27;;
17955;SDS011;27666;51.498;11.966;2023-04-21T01:29:48;24.80;;;13.23;;
17955;SDS011;27666;51.498;11.966;2023-04-21T01:32:36;23.03;;;13.40;;
17955;SDS011;27666;51.498;11.966;2023-04-21T01:35:23;24.13;;;12.03;;
17955;SDS011;27666;51.498;11.966;2023-04-21T01:38:09;23.57;;;13.67;;
17955;SDS011;27666;51.498;11.966;2023-04-21T01:40:57;27.10;;;12.90;;
17955;SDS011;27666;51.498;11.966;2023-04-21T01:43:44;20.13;;;12.70;;
17955;SDS011;27666;51.498;11.966;2023-04-21T01:46:30;17.97;;;11.70;;
17955;SDS011;27666;51.498;11.966;2023-04-21T01:49:17;23.67;;;12.50;;
17955;SDS011;27666;51.498;11.966;2023-04-21T01:52:04;19.20;;;13.17;;
17955;SDS011;27666;51.498;11.966;2023-04-21T01:54:50;22.63;;;11.77;;
17955;SDS011;27666;51.498;11.966;2023-04-21T01:57:38;26.60;;;12.83;;
17955;SDS011;27666;51.498;11.966;2023-04-21T02:00:25;20.30;;;12.23;;
17955;SDS011;27666;51.498;11.966;2023-04-21T02:03:12;22.83;;;11.70;;
17955;SDS011;27666;51.498;11.966;2023-04-21T02:05:58;18.53;;;11.40;;
17955;SDS011;27666;51.498;11.966;2023-04-21T02:08:45;20.17;;;11.20;;
17955;SDS011;27666;51.498;11.966;2023-04-21T02:11:31;17.23;;;11.50;;
17955;SDS011;27666;51.498;11.966;2023-04-21T02:14:20;19.17;;;11.37;;
17955;SDS011;27666;51.498;11.966;2023-04-21T02:17:06;19.43;;;11.57;;
17955;SDS011;27666;51.498;11.966;2023-04-21T02:19:53;21.10;;;11.93;;
17955;SDS011;27666;51.498;11.966;2023-04-21T02:22:39;16.53;;;11.20;;
17955;SDS011;27666;51.498;11.966;2023-04-21T02:25:26;22.03;;;11.97;;
17955;SDS011;27666;51.498;11.966;2023-04-21T02:28:13;18.87;;;11.40;;
17955;SDS011;27666;51.498;11.966;2023-04-21T02:31:01;19.03;;;10.70;;
17955;SDS011;27666;51.498;11.966;2023-04-21T02:33:48;16.73;;;11.23;;
17955;SDS011;27666;51.498;11.966;2023-04-21T02:36:34;24.20;;;11.07;;
17955;SDS011;27666;51.498;11.966;2023-04-21T02:39:21;20.17;;;11.07;;
17955;SDS011;27666;51.498;11.966;2023-04-21T02:42:07;20.67;;;10.70;;
17955;SDS011;27666;51.498;11.966;2023-04-21T02:44:54;20.17;;;11.67;;
17955;SDS011;27666;51.498;11.966;2023-04-21T02:47:41;21.03;;;11.40;;
17955;SDS011;27666;51.498;11.966;2023-04-21T02:50:28;20.07;;;10.67;;
17955;SDS011;27666;51.498;11.966;2023-04-21T02:53:14;24.97;;;11.33;;
17955;SDS011;27666;51.498;11.966;2023-04-21T02:56:01;24.23;;;11.07;;
17955;SDS011;27666;51.498;11.966;2023-04-21T02:58:49;22.30;;;12.23;;
17955;SDS011;27666;51.498;11.966;2023-04-21T03:01:35;20.03;;;10.93;;
17955;SDS011;27666;51.498;11.966;2023-04-21T03:04:23;19.83;;;11.23;;
17955;SDS011;27666;51.498;11.966;2023-04-21T03:07:10;25.00;;;11.87;;
17955;SDS011;27666;51.498;11.966;2023-04-21T03:09:58;25.17;;;11.37;;
17955;SDS011;27666;51.498;11.966;2023-04-21T03:12:44;20.67;;;12.57;;
17955;SDS011;27666;51.498;11.966;2023-04-21T03:15:31;22.33;;;11.17;;
17955;SDS011;27666;51.498;11.966;2023-04-21T03:18:17;21.40;;;11.83;;
17955;SDS011;27666;51.498;11.966;2023-04-21T03:21:05;14.43;;;11.00;;
17955;SDS011;27666;51.498;11.966;2023-04-21T03:23:52;21.57;;;11.63;;
17955;SDS011;27666;51.498;11.966;2023-04-21T03:26:38;20.43;;;11.70;;
17955;SDS011;27666;51.498;11.966;2023-04-21T03:29:25;17.00;;;11.00;;
17955;SDS011;27666;51.498;11.966;2023-04-21T03:32:11;19.33;;;10.93;;
17955;SDS011;27666;51.498;11.966;2023-04-21T03:34:58;19.17;;;10.77;;
17955;SDS011;27666;51.498;11.966;2023-04-21T03:37:46;25.43;;;11.67;;
17955;SDS011;27666;51.498;11.966;2023-04-21T03:40:33;21.20;;;12.37;;
17955;SDS011;27666;51.498;11.966;2023-04-21T03:43:20;21.33;;;10.93;;
17955;SDS011;27666;51.498;11.966;2023-04-21T03:46:06;20.57;;;11.07;;
17955;SDS011;27666;51.498;11.966;2023-04-21T03:48:53;21.77;;;11.80;;
17955;SDS011;27666;51.498;11.966;2023-04-21T03:51:39;14.83;;;11.03;;
17955;SDS011;27666;51.498;11.966;2023-04-21T03:54:27;23.87;;;11.40;;
17955;SDS011;27666;51.498;11.966;2023-04-21T03:57:14;21.30;;;11.40;;
17955;SDS011;27666;51.498;11.966;2023-04-21T04:00:02;23.80;;;11.50;;
17955;SDS011;27666;51.498;11.966;2023-04-21T04:02:49;20.97;;;11.63;;
17955;SDS011;27666;51.498;11.966;2023-04-21T04:05:36;25.37;;;11.67;;
17955;SDS011;27666;51.498;11.966;2023-04-21T04:08:23;18.97;;;11.40;;
17955;SDS011;27666;51.498;11.966;2023-04-21T04:11:10;21.57;;;11.87;;
17955;SDS011;27666;51.498;11.966;2023-04-21T04:13:57;19.77;;;11.67;;
17955;SDS011;27666;51.498;11.966;2023-04-21T04:16:43;21.03;;;12.03;;
17955;SDS011;27666;51.498;11.966;2023-04-21T04:19:30;21.33;;;12.23;;
17955;SDS011;27666;51.498;11.966;2023-04-21T04:22:17;16.77;;;11.47;;
17955;SDS011;27666;51.498;11.966;2023-04-21T04:25:03;23.27;;;11.90;;
17955;SDS011;27666;51.498;11.966;2023-04-21T04:27:52;19.00;;;10.90;;
17955;SDS011;27666;51.498;11.966;2023-04-21T04:30:39;24.73;;;12.53;;
17955;SDS011;27666;51.498;11.966;2023-04-21T04:33:26;26.47;;;11.63;;
17955;SDS011;27666;51.498;11.966;2023-04-21T04:36:15;25.90;;;12.40;;
17955;SDS011;27666;51.498;11.966;2023-04-21T04:39:01;22.70;;;12.00;;
17955;SDS011;27666;51.498;11.966;2023-04-21T04:41:48;19.73;;;11.60;;
17955;SDS011;27666;51.498;11.966;2023-04-21T04:44:37;20.07;;;11.00;;
17955;SDS011;27666;51.498;11.966;2023-04-21T04:47:25;21.30;;;12.13;;
17955;SDS011;27666;51.498;11.966;2023-04-21T04:50:11;23.20;;;10.57;;
17955;SDS011;27666;51.498;11.966;2023-04-21T04:52:58;21.37;;;11.67;;
17955;SDS011;27666;51.498;11.966;2023-04-21T04:55:44;19.10;;;9.67;;
17955;SDS011;27666;51.498;11.966;2023-04-21T04:58:31;14.77;;;10.00;;
17955;SDS011;27666;51.498;11.966;2023-04-21T05:01:19;20.13;;;10.80;;
17955;SDS011;27666;51.498;11.966;2023-04-21T05:04:06;22.00;;;10.23;;
17955;SDS011;27666;51.498;11.966;2023-04-21T05:06:53;15.63;;;10.33;;
17955;SDS011;27666;51.498;11.966;2023-04-21T05:09:39;18.20;;;9.83;;
17955;SDS011;27666;51.498;11.966;2023-04-21T05:12:26;25.53;;;10.77;;
17955;SDS011;27666;51.498;11.966;2023-04-21T05:15:12;21.90;;;10.30;;
17955;SDS011;27666;51.498;11.966;2023-04-21T05:18:00;18.83;;;10.00;;
17955;SDS011;27666;51.498;11.966;2023-04-21T05:20:47;23.03;;;10.30;;
17955;SDS011;27666;51.498;11.966;2023-04-21T05:23:33;18.67;;;9.87;;
17955;SDS011;27666;51.498;11.966;2023-04-21T05:26:20;16.43;;;9.33;;
17955;SDS011;27666;51.498;11.966;2023-04-21T05:29:06;18.73;;;9.37;;
17955;SDS011;27666;51.498;11.966;2023-04-21T05:31:53;14.73;;;9.10;;
17955;SDS011;27666;51.498;11.966;2023-04-21T05:34:41;16.90;;;9.43;;
17955;SDS011;27666;51.498;11.966;2023-04-21T05:37:27;20.03;;;9.20;;
17955;SDS011;27666;51.498;11.966;2023-04-21T05:40:13;15.10;;;8.83;;
17955;SDS011;27666;51.498;11.966;2023-04-21T05:43:00;14.27;;;8.53;;
17955;SDS011;27666;51.498;11.966;2023-04-21T05:45:46;21.40;;;9.40;;
17955;SDS011;27666;51.498;11.966;2023-04-21T05:48:33;18.43;;;9.20;;
17955;SDS011;27666;51.498;11.966;2023-04-21T05:51:21;16.70;;;8.93;;
17955;SDS011;27666;51.498;11.966;2023-04-21T05:54:07;21.00;;;9.07;;
17955;SDS011;27666;51.498;11.966;2023-04-21T05:56:54;16.33;;;9.32;;
17955;SDS011;27666;51.498;11.966;2023-04-21T05:59:40;21.48;;;9.20;;
17955;SDS011;27666;51.498;11.966;2023-04-21T06:02:27;16.77;;;8.70;;
17955;SDS011;27666;51.498;11.966;2023-04-21T06:05:14;15.68;;;8.95;;
17955;SDS011;27666;51.498;11.966;2023-04-21T06:08:01;14.98;;;9.10;;
17955;SDS011;27666;51.498;11.966;2023-04-21T06:10:48;17.85;;;8.32;;
17955;SDS011;27666;51.498;11.966;2023-04-21T06:13:35;18.73;;;9.02;;
17955;SDS011;27666;51.498;11.966;2023-04-21T06:16:24;17.10;;;9.10;;
17955;SDS011;27666;51.498;11.966;2023-04-21T06:19:11;16.25;;;8.73;;
17955;SDS011;27666;51.498;11.966;2023-04-21T06:21:57;18.50;;;8.50;;
17955;SDS011;27666;51.498;11.966;2023-04-21T06:24:45;14.65;;;8.27;;
17955;SDS011;27666;51.498;11.966;2023-04-21T06:27:32;17.67;;;8.20;;
17955;SDS011;27666;51.498;11.966;2023-04-21T06:30:18;13.88;;;7.97;;
17955;SDS011;27666;51.498;11.966;2023-04-21T06:33:05;17.58;;;9.02;;
17955;SDS011;27666;51.498;11.966;2023-04-21T06:35:51;19.92;;;8.80;;
17955;SDS011;27666;51.498;11.966;2023-04-21T06:38:38;19.48;;;8.55;;
17955;SDS011;27666;51.498;11.966;2023-04-21T06:41:28;23.60;;;8.75;;
17955;SDS011;27666;51.498;11.966;2023-04-21T06:44:14;13.88;;;8.02;;
17955;SDS011;27666;51.498;11.966;2023-04-21T06:47:01;19.02;;;8.30;;
17955;SDS011;27666;51.498;11.966;2023-04-21T06:49:48;17.92;;;9.35;;
17955;SDS011;27666;51.498;11.966;2023-04-21T06:52:34;18.05;;;8.43;;
17955;SDS011;27666;51.498;11.966;2023-04-21T06:55:21;23.15;;;9.23;;
17955;SDS011;27666;51.498;11.966;2023-04-21T06:58:09;18.42;;;8.13;;
17955;SDS011;27666;51.498;11.966;2023-04-21T07:00:56;19.65;;;8.88;;
17955;SDS011;27666;51.498;11.966;2023-04-21T07:03:43;12.80;;;7.95;;
17955;SDS011;27666;51.498;11.966;2023-04-21T07:06:30;24.77;;;9.85;;
17955;SDS011;27666;51.498;11.966;2023-04-21T07:09:16;17.50;;;7.72;;
17955;SDS011;27666;51.498;11.966;2023-04-21T07:12:03;16.73;;;8.75;;
17955;SDS011;27666;51.498;11.966;2023-04-21T07:14:52;18.77;;;8.68;;
17955;SDS011;27666;51.498;11.966;2023-04-21T07:17:38;22.42;;;9.07;;
17955;SDS011;27666;51.498;11.966;2023-04-21T07:20:24;16.20;;;8.70;;
17955;SDS011;27666;51.498;11.966;2023-04-21T07:23:11;12.80;;;8.38;;
17955;SDS011;27666;51.498;11.966;2023-04-21T07:25:58;18.20;;;9.00;;
17955;SDS011;27666;51.498;11.966;2023-04-21T07:28:45;18.88;;;8.75;;
17955;SDS011;27666;51.498;11.966;2023-04-21T07:31:34;19.60;;;9.25;;
17955;SDS011;27666;51.498;11.966;2023-04-21T07:34:21;26.80;;;9.35;;
17955;SDS011;27666;51.498;11.966;2023-04-21T07:37:07;17.90;;;8.52;;
17955;SDS011;27666;51.498;11.966;2023-04-21T07:39:53;22.02;;;8.98;;
17955;SDS011;27666;51.498;11.966;2023-04-21T07:42:40;17.25;;;8.63;;
17955;SDS011;27666;51.498;11.966;2023-04-21T07:45:26;16.63;;;9.00;;
17955;SDS011;27666;51.498;11.966;2023-04-21T07:48:14;12.50;;;8.23;;
17955;SDS011;27666;51.498;11.966;2023-04-21T07:51:01;14.65;;;7.85;;
17955;SDS011;27666;51.498;11.966;2023-04-21T07:53:47;15.80;;;8.02;;
17955;SDS011;27666;51.498;11.966;2023-04-21T07:56:34;15.00;;;8.50;;
17955;SDS011;27666;51.498;11.966;2023-04-21T07:59:20;15.20;;;8.00;;
17955;SDS011;27666;51.498;11.966;2023-04-21T08:02:07;22.98;;;9.02;;
17955;SDS011;27666;51.498;11.966;2023-04-21T08:04:54;17.95;;;8.70;;
17955;SDS011;27666;51.498;11.966;2023-04-21T08:07:41;15.23;;;7.95;;
17955;SDS011;27666;51.498;11.966;2023-04-21T08:10:28;15.95;;;8.10;;
17955;SDS011;27666;51.498;11.966;2023-04-21T08:13:14;18.35;;;8.43;;
17955;SDS011;27666;51.498;11.966;2023-04-21T08:16:00;15.18;;;8.38;;
17955;SDS011;27666;51.498;11.966;2023-04-21T08:18:47;17.02;;;7.53;;
17955;SDS011;27666;51.498;11.966;2023-04-21T08:21:35;17.27;;;7.75;;
17955;SDS011;27666;51.498;11.966;2023-04-21T08:24:21;17.05;;;7.53;;
17955;SDS011;27666;51.498;11.966;2023-04-21T08:27:08;14.10;;;7.88;;
17955;SDS011;27666;51.498;11.966;2023-04-21T08:29:54;16.50;;;8.32;;
17955;SDS011;27666;51.498;11.966;2023-04-21T08:32:41;14.27;;;7.93;;
17955;SDS011;27666;51.498;11.966;2023-04-21T08:35:28;14.20;;;7.13;;
17955;SDS011;27666;51.498;11.966;2023-04-21T08:38:16;15.10;;;7.55;;
17955;SDS011;27666;51.498;11.966;2023-04-21T08:41:02;19.77;;;8.15;;
17955;SDS011;27666;51.498;11.966;2023-04-21T08:43:50;13.55;;;7.78;;
17955;SDS011;27666;51.498;11.966;2023-04-21T08:46:36;17.27;;;8.13;;
17955;SDS011;27666;51.498;11.966;2023-04-21T08:49:23;20.95;;;7.60;;
17955;SDS011;27666;51.498;11.966;2023-04-21T08:52:14;12.93;;;7.72;;
17955;SDS011;27666;51.498;11.966;2023-04-21T08:55:03;17.40;;;8.13;;
17955;SDS011;27666;51.498;11.966;2023-04-21T08:57:51;14.82;;;8.00;;
17955;SDS011;27666;51.498;11.966;2023-04-21T09:00:38;14.65;;;7.30;;
17955;SDS011;27666;51.498;11.966;2023-04-21T09:03:26;11.52;;;7.32;;
17955;SDS011;27666;51.498;11.966;2023-04-21T09:06:13;14.93;;;7.05;;
17955;SDS011;27666;51.498;11.966;2023-04-21T09:09:01;16.80;;;8.13;;
17955;SDS011;27666;51.498;11.966;2023-04-21T09:11:54;16.65;;;7.90;;
17955;SDS011;27666;51.498;11.966;2023-04-21T09:14:42;20.05;;;7.63;;
17955;SDS011;27666;51.498;11.966;2023-04-21T09:17:29;13.15;;;7.05;;
17955;SDS011;27666;51.498;11.966;2023-04-21T09:20:18;14.70;;;7.47;;
17955;SDS011;27666;51.498;11.966;2023-04-21T09:23:07;13.75;;;7.13;;
17955;SDS011;27666;51.498;11.966;2023-04-21T09:25:53;12.95;;;6.95;;
17955;SDS011;27666;51.498;11.966;2023-04-21T09:28:42;15.23;;;7.50;;
17955;SDS011;27666;51.498;11.966;2023-04-21T09:31:29;12.82;;;7.13;;
17955;SDS011;27666;51.498;11.966;2023-04-21T09:34:21;11.77;;;7.13;;
17955;SDS011;27666;51.498;11.966;2023-04-21T09:37:12;23.55;;;7.38;;
17955;SDS011;27666;51.498;11.966;2023-04-21T09:40:03;18.15;;;6.70;;
17955;SDS011;27666;51.498;11.966;2023-04-21T09:42:50;11.43;;;6.82;;
17955;SDS011;27666;51.498;11.966;2023-04-21T09:45:38;14.05;;;6.65;;
17955;SDS011;27666;51.498;11.966;2023-04-21T09:48:25;12.65;;;6.05;;
17955;SDS011;27666;51.498;11.966;2023-04-21T09:51:17;11.95;;;6.47;;
17955;SDS011;27666;51.498;11.966;2023-04-21T09:54:25;15.40;;;6.47;;
17955;SDS011;27666;51.498;11.966;2023-04-21T09:57:18;9.30;;;6.20;;
17955;SDS011;27666;51.498;11.966;2023-04-21T10:00:08;12.38;;;5.85;;
17955;SDS011;27666;51.498;11.966;2023-04-21T10:02:58;11.95;;;5.93;;
17955;SDS011;27666;51.498;11.966;2023-04-21T10:05:49;13.43;;;5.97;;
17955;SDS011;27666;51.498;11.966;2023-04-21T10:08:36;8.30;;;5.20;;
17955;SDS011;27666;51.498;11.966;2023-04-21T10:11:22;10.00;;;5.63;;
17955;SDS011;27666;51.498;11.966;2023-04-21T10:14:09;12.55;;;5.25;;
17955;SDS011;27666;51.498;11.966;2023-04-21T10:16:56;13.98;;;5.30;;
17955;SDS011;27666;51.498;11.966;2023-04-21T10:19:49;11.40;;;5.30;;
17955;SDS011;27666;51.498;11.966;2023-04-21T10:22:36;8.95;;;4.93;;
17955;SDS011;27666;51.498;11.966;2023-04-21T10:25:23;11.95;;;5.28;;
17955;SDS011;27666;51.498;11.966;2023-04-21T10:28:16;12.60;;;4.80;;
17955;SDS011;27666;51.498;11.966;2023-04-21T10:31:15;9.80;;;4.30;;
17955;SDS011;27666;51.498;11.966;2023-04-21T10:37:21;9.50;;;4.70;;
17955;SDS011;27666;51.498;11.966;2023-04-21T10:43:41;12.23;;;5.20;;
17955;SDS011;27666;51.498;11.966;2023-04-21T10:46:33;11.73;;;5.00;;
17955;SDS011;27666;51.498;11.966;2023-04-21T10:49:21;10.98;;;4.88;;
17955;SDS011;27666;51.498;11.966;2023-04-21T10:52:09;9.63;;;4.43;;
17955;SDS011;27666;51.498;11.966;2023-04-21T10:55:07;11.07;;;4.95;;
17955;SDS011;27666;51.498;11.966;2023-04-21T10:57:56;17.40;;;5.60;;
17955;SDS011;27666;51.498;11.966;2023-04-21T11:00:46;6.75;;;4.88;;
17955;SDS011;27666;51.498;11.966;2023-04-21T11:03:38;6.97;;;4.53;;
17955;SDS011;27666;51.498;11.966;2023-04-21T11:06:25;9.70;;;4.45;;
17955;SDS011;27666;51.498;11.966;2023-04-21T11:09:12;13.98;;;4.78;;
17955;SDS011;27666;51.498;11.966;2023-04-21T11:12:03;7.03;;;4.88;;
17955;SDS011;27666;51.498;11.966;2023-04-21T11:14:51;9.68;;;4.50;;
17955;SDS011;27666;51.498;11.966;2023-04-21T11:17:38;10.30;;;4.80;;
17955;SDS011;27666;51.498;11.966;2023-04-21T11:20:27;8.45;;;4.18;;
17955;SDS011;27666;51.498;11.966;2023-04-21T11:23:16;7.75;;;4.65;;
17955;SDS011;27666;51.498;11.966;2023-04-21T11:26:02;12.63;;;5.07;;
17955;SDS011;27666;51.498;11.966;2023-04-21T11:28:50;9.73;;;4.85;;
17955;SDS011;27666;51.498;11.966;2023-04-21T11:31:37;8.05;;;4.97;;
17955;SDS011;27666;51.498;11.966;2023-04-21T11:34:25;8.90;;;4.53;;
17955;SDS011;27666;51.498;11.966;2023-04-21T11:37:13;7.13;;;4.13;;
17955;SDS011;27666;51.498;11.966;2023-04-21T11:40:01;6.03;;;4.40;;
17955;SDS011;27666;51.498;11.966;2023-04-21T11:42:49;8.20;;;4.50;;
17955;SDS011;27666;51.498;11.966;2023-04-21T11:45:37;8.85;;;5.13;;
17955;SDS011;27666;51.498;11.966;2023-04-21T11:48:28;8.77;;;3.97;;
17955;SDS011;27666;51.498;11.966;2023-04-21T11:51:15;10.90;;;5.25;;
17955;SDS011;27666;51.498;11.966;2023-04-21T11:54:07;13.95;;;4.88;;
17955;SDS011;27666;51.498;11.966;2023-04-21T11:56:55;10.15;;;4.60;;
17955;SDS011;27666;51.498;11.966;2023-04-21T11:59:44;10.02;;;3.88;;
17955;SDS011;27666;51.498;11.966;2023-04-21T12:02:33;6.20;;;4.22;;
17955;SDS011;27666;51.498;11.966;2023-04-21T12:05:19;6.93;;;4.32;;
17955;SDS011;27666;51.498;11.966;2023-04-21T12:08:12;11.70;;;5.05;;
17955;SDS011;27666;51.498;11.966;2023-04-21T12:11:01;5.45;;;4.57;;
17955;SDS011;27666;51.498;11.966;2023-04-21T12:13:47;8.20;;;4.70;;
17955;SDS011;27666;51.498;11.966;2023-04-21T12:16:35;11.13;;;4.63;;
17955;SDS011;27666;51.498;11.966;2023-04-21T12:19:24;7.60;;;4.88;;
17955;SDS011;27666;51.498;11.966;2023-04-21T12:22:20;7.45;;;4.72;;
17955;SDS011;27666;51.498;11.966;2023-04-21T12:25:07;9.90;;;5.18;;
17955;SDS011;27666;51.498;11.966;2023-04-21T12:27:56;9.02;;;4.50;;
17955;SDS011;27666;51.498;11.966;2023-04-21T12:30:43;9.55;;;5.18;;
17955;SDS011;27666;51.498;11.966;2023-04-21T12:33:29;6.72;;;4.30;;
17955;SDS011;27666;51.498;11.966;2023-04-21T12:36:18;7.15;;;4.25;;
17955;SDS011;27666;51.498;11.966;2023-04-21T12:39:05;11.57;;;5.30;;
17955;SDS011;27666;51.498;11.966;2023-04-21T12:41:51;9.13;;;5.20;;
17955;SDS011;27666;51.498;11.966;2023-04-21T12:44:37;7.38;;;4.95;;
17955;SDS011;27666;51.498;11.966;2023-04-21T12:47:24;9.70;;;4.30;;
17955;SDS011;27666;51.498;11.966;2023-04-21T12:50:11;7.90;;;4.22;;
17955;SDS011;27666;51.498;11.966;2023-04-21T12:52:59;6.30;;;4.53;;
17955;SDS011;27666;51.498;11.966;2023-04-21T12:55:46;7.63;;;4.05;;
17955;SDS011;27666;51.498;11.966;2023-04-21T12:58:48;6.80;;;4.40;;
17955;SDS011;27666;51.498;11.966;2023-04-21T13:01:34;5.75;;;3.90;;
17955;SDS011;27666;51.498;11.966;2023-04-21T13:04:20;8.80;;;4.47;;
17955;SDS011;27666;51.498;11.966;2023-04-21T13:07:07;9.02;;;4.35;;
17955;SDS011;27666;51.498;11.966;2023-04-21T13:09:55;9.48;;;4.35;;
17955;SDS011;27666;51.498;11.966;2023-04-21T13:12:41;10.27;;;4.13;;
17955;SDS011;27666;51.498;11.966;2023-04-21T13:15:28;9.65;;;4.20;;
17955;SDS011;27666;51.498;11.966;2023-04-21T13:18:15;6.95;;;4.28;;
17955;SDS011;27666;51.498;11.966;2023-04-21T13:21:01;7.00;;;4.40;;
17955;SDS011;27666;51.498;11.966;2023-04-21T13:23:48;6.50;;;4.22;;
17955;SDS011;27666;51.498;11.966;2023-04-21T13:26:36;7.78;;;4.32;;
17955;SDS011;27666;51.498;11.966;2023-04-21T13:29:22;11.25;;;4.15;;
17955;SDS011;27666;51.498;11.966;2023-04-21T13:32:13;9.40;;;4.97;;
17955;SDS011;27666;51.498;11.966;2023-04-21T13:34:59;6.60;;;4.55;;
17955;SDS011;27666;51.498;11.966;2023-04-21T13:37:45;13.13;;;4.78;;
17955;SDS011;27666;51.498;11.966;2023-04-21T13:40:33;7.22;;;4.40;;
17955;SDS011;27666;51.498;11.966;2023-04-21T13:43:20;7.20;;;4.30;;
17955;SDS011;27666;51.498;11.966;2023-04-21T13:46:07;11.30;;;4.60;;
17955;SDS011;27666;51.498;11.966;2023-04-21T13:48:54;9.13;;;4.20;;
17955;SDS011;27666;51.498;11.966;2023-04-21T13:51:41;10.73;;;4.65;;
17955;SDS011;27666;51.498;11.966;2023-04-21T13:54:27;9.70;;;4.40;;
17955;SDS011;27666;51.498;11.966;2023-04-21T13:57:14;14.65;;;4.65;;
17955;SDS011;27666;51.498;11.966;2023-04-21T14:00:02;9.35;;;4.85;;
17955;SDS011;27666;51.498;11.966;2023-04-21T14:02:50;9.57;;;4.38;;
17955;SDS011;27666;51.498;11.966;2023-04-21T14:05:37;6.72;;;4.20;;
17955;SDS011;27666;51.498;11.966;2023-04-21T14:08:25;4.95;;;3.90;;
17955;SDS011;27666;51.498;11.966;2023-04-21T14:11:11;17.27;;;4.68;;
17955;SDS011;27666;51.498;11.966;2023-04-21T14:13:58;11.43;;;4.57;;
17955;SDS011;27666;51.498;11.966;2023-04-21T14:16:55;5.00;;;3.88;;
17955;SDS011;27666;51.498;11.966;2023-04-21T14:19:42;12.20;;;4.28;;
17955;SDS011;27666;51.498;11.966;2023-04-21T14:22:30;7.55;;;4.65;;
17955;SDS011;27666;51.498;11.966;2023-04-21T14:25:17;7.47;;;4.45;;
17955;SDS011;27666;51.498;11.966;2023-04-21T14:28:03;7.70;;;4.32;;
17955;SDS011;27666;51.498;11.966;2023-04-21T14:30:52;7.82;;;3.78;;
17955;SDS011;27666;51.498;11.966;2023-04-21T14:33:40;6.93;;;3.63;;
17955;SDS011;27666;51.498;11.966;2023-04-21T14:36:26;8.38;;;3.75;;
17955;SDS011;27666;51.498;11.966;2023-04-21T14:39:13;6.45;;;3.72;;
17955;SDS011;27666;51.498;11.966;2023-04-21T14:42:00;9.30;;;4.00;;
17955;SDS011;27666;51.498;11.966;2023-04-21T14:44:46;7.03;;;4.05;;
17955;SDS011;27666;51.498;11.966;2023-04-21T14:47:33;6.93;;;4.07;;
17955;SDS011;27666;51.498;11.966;2023-04-21T14:50:21;7.80;;;3.85;;
17955;SDS011;27666;51.498;11.966;2023-04-21T14:53:08;11.07;;;4.45;;
17955;SDS011;27666;51.498;11.966;2023-04-21T14:55:54;5.85;;;3.50;;
17955;SDS011;27666;51.498;11.966;2023-04-21T14:58:41;7.00;;;3.85;;
17955;SDS011;27666;51.498;11.966;2023-04-21T15:01:27;10.50;;;3.90;;
17955;SDS011;27666;51.498;11.966;2023-04-21T15:04:14;7.05;;;3.88;;
17955;SDS011;27666;51.498;11.966;2023-04-21T15:07:02;6.97;;;4.00;;
17955;SDS011;27666;51.498;11.966;2023-04-21T15:09:49;9.68;;;3.78;;
17955;SDS011;27666;51.498;11.966;2023-04-21T15:12:36;10.73;;;3.95;;
17955;SDS011;27666;51.498;11.966;2023-04-21T15:15:23;5.97;;;4.55;;
17955;SDS011;27666;51.498;11.966;2023-04-21T15:18:09;7.45;;;3.63;;
17955;SDS011;27666;51.498;11.966;2023-04-21T15:20:56;8.68;;;3.80;;
17955;SDS011;27666;51.498;11.966;2023-04-21T15:23:43;6.60;;;3.75;;
17955;SDS011;27666;51.498;11.966;2023-04-21T15:26:30;14.20;;;3.90;;
17955;SDS011;27666;51.498;11.966;2023-04-21T15:29:16;5.88;;;3.72;;
17955;SDS011;27666;51.498;11.966;2023-04-21T15:32:03;5.13;;;3.72;;
17955;SDS011;27666;51.498;11.966;2023-04-21T15:34:49;5.28;;;3.72;;
17955;SDS011;27666;51.498;11.966;2023-04-21T15:37:36;9.00;;;4.10;;
17955;SDS011;27666;51.498;11.966;2023-04-21T15:40:24;23.30;;;8.35;;
17955;SDS011;27666;51.498;11.966;2023-04-21T15:43:10;10.13;;;4.55;;
17955;SDS011;27666;51.498;11.966;2023-04-21T15:45:57;6.30;;;3.88;;
17955;SDS011;27666;51.498;11.966;2023-04-21T15:48:44;9.75;;;4.43;;
17955;SDS011;27666;51.498;11.966;2023-04-21T15:51:30;6.68;;;3.90;;
17955;SDS011;27666;51.498;11.966;2023-04-21T15:54:19;6.10;;;3.65;;
17955;SDS011;27666;51.498;11.966;2023-04-21T15:57:08;6.10;;;3.63;;
17955;SDS011;27666;51.498;11.966;2023-04-21T15:59:54;7.28;;;3.97;;
17955;SDS011;27666;51.498;11.966;2023-04-21T16:02:41;5.78;;;3.67;;
17955;SDS011;27666;51.498;11.966;2023-04-21T16:05:28;13.20;;;4.40;;
17955;SDS011;27666;51.498;11.966;2023-04-21T16:08:15;10.27;;;4.50;;
17955;SDS011;27666;51.498;11.966;2023-04-21T16:11:01;5.68;;;3.60;;
17955;SDS011;27666;51.498;11.966;2023-04-21T16:13:49;17.95;;;4.30;;
17955;SDS011;27666;51.498;11.966;2023-04-21T16:16:36;8.73;;;4.32;;
17955;SDS011;27666;51.498;11.966;2023-04-21T16:19:23;8.15;;;3.83;;
17955;SDS011;27666;51.498;11.966;2023-04-21T16:22:09;10.38;;;4.00;;
17955;SDS011;27666;51.498;11.966;2023-04-21T16:24:56;8.70;;;3.95;;